LiveATC.Net - Listen to live air traffic control over the Internet!


ICAO: KNSE  IATA: NSE   Airport: Whiting Field Naval Air Station North
City: Milton   State/Province: Florida
Country: United States   Continent: North America
KNSE METAR Weather: KNSE 251556Z 13007KT 10SM SCT030 BKN070 BKN250 23/19 A3014 RMK AO2 SLP191 T02280189 $
KNSE Flight Activity (FlightAware)
KNSE Airport Info   (iFlightPlanner)
KNSE VFR Sectional Chart   (iFlightPlanner) 
KNSE IFR Low Chart   (iFlightPlanner) 

KNDZ/KNSE Twr/App
Feed Status: DOWN
Last heard on: 2020-08-12 05:42:39 (105 days 10 hours 52 minutes ago)
Archive Access: KNDZ/KNSE Twr/App
FacilityFrequency
Pensacola Approach124.850
Pensacola Approach127.350
Sherman Tower340.200
Whiting North Tower306.925
Whiting South Tower348.675

NOTICE

Unauthorized use prohibited. See LiveATC.net Terms of Service


Airport/ARTCC Code
Frequency Search
(e.g., 124.400, 128.75)
Site-wide search
 


Browse Feeds
Top 50 Feeds
Coverage Map
Bad Weather Areas

LiveATC FAQ
Offer LiveATC feed
Contact LiveATC.net
Press Inquiries

LiveATC on iPhone
LiveATC on Android

Windows Phone
Windows 8/10

LiveATC Mobile
(Mobile browser)

ATC Audio Archives
Interesting Recordings

LiveATC Forums


Home Page
About LiveATC.net
Make a Donation
Terms of Use
Privacy Policy

Canadian Air Freqs

AIRMETs/SIGMETs

FAA Airport Status
Nat'l Airspace Status
Arrival Demand Charts


Server Software By:
Icecast.org
Liquidsoap